createdAt,value
2018-09-23T00:00:11.643Z,19.14
2018-09-23T00:02:37.988Z,19.14
2018-09-23T00:05:04.328Z,19.14
2018-09-23T00:07:30.645Z,19.21
2018-09-23T00:09:56.973Z,19.13
2018-09-23T00:12:23.318Z,19.10
2018-09-23T00:14:49.633Z,19.07
2018-09-23T00:17:15.980Z,19.10
2018-09-23T00:19:42.324Z,19.05
2018-09-23T00:22:08.663Z,19.00
2018-09-23T00:24:34.962Z,18.92
2018-09-23T00:27:01.283Z,18.91
2018-09-23T00:29:27.606Z,18.91
2018-09-23T00:31:53.958Z,18.94
2018-09-23T00:34:20.273Z,18.90
2018-09-23T00:36:46.617Z,18.88
2018-09-23T00:39:12.979Z,18.89
2018-09-23T00:41:39.299Z,18.83
2018-09-23T00:44:05.678Z,18.83
2018-09-23T00:46:32.015Z,18.86
2018-09-23T00:48:58.365Z,18.84
2018-09-23T00:51:24.673Z,18.86
2018-09-23T00:53:51.020Z,18.84
2018-09-23T00:56:17.339Z,18.82
2018-09-23T00:58:43.664Z,18.79
2018-09-23T01:01:10.054Z,18.73
2018-09-23T01:03:36.412Z,18.71
2018-09-23T01:06:02.727Z,18.67
2018-09-23T01:08:29.090Z,18.62
2018-09-23T01:10:55.433Z,18.57
2018-09-23T01:13:21.778Z,18.57
2018-09-23T01:15:48.176Z,18.58
2018-09-23T01:18:14.525Z,18.46
2018-09-23T01:20:40.864Z,18.44
2018-09-23T01:23:07.186Z,18.40
2018-09-23T01:25:33.528Z,18.38
2018-09-23T01:27:59.871Z,18.40
2018-09-23T01:30:26.238Z,18.35
2018-09-23T01:32:52.536Z,18.32
2018-09-23T01:35:18.902Z,18.33
2018-09-23T01:37:45.240Z,18.21
2018-09-23T01:40:11.580Z,18.19
2018-09-23T01:42:37.894Z,18.14
2018-09-23T01:45:04.220Z,18.10
2018-09-23T01:47:30.567Z,18.07
2018-09-23T01:49:56.883Z,18.02
2018-09-23T01:52:23.235Z,18.03
2018-09-23T01:54:49.553Z,18.06
2018-09-23T01:57:15.866Z,18.08
2018-09-23T01:59:42.211Z,18.12
2018-09-23T02:02:08.555Z,18.08
2018-09-23T02:04:34.878Z,18.04
2018-09-23T02:07:01.224Z,18.03
2018-09-23T02:09:27.576Z,18.08
2018-09-23T02:11:53.920Z,18.04
2018-09-23T02:14:20.280Z,17.92
2018-09-23T02:16:46.554Z,17.78
2018-09-23T02:19:12.874Z,17.76
2018-09-23T02:21:39.213Z,17.63
2018-09-23T02:24:05.554Z,17.66
2018-09-23T02:26:31.907Z,17.51
2018-09-23T02:28:58.256Z,17.38
2018-09-23T02:31:24.603Z,17.19
2018-09-23T02:33:50.943Z,17.07
2018-09-23T02:36:17.296Z,17.10
2018-09-23T02:38:43.700Z,17.05
2018-09-23T02:41:10.047Z,17.05
2018-09-23T02:43:36.369Z,16.85
2018-09-23T02:46:02.720Z,16.75
2018-09-23T02:48:29.070Z,16.82
2018-09-23T02:50:55.381Z,16.80
2018-09-23T02:53:21.715Z,16.72
2018-09-23T02:55:48.045Z,16.70
2018-09-23T02:58:14.424Z,16.83
2018-09-23T03:00:40.752Z,16.94
2018-09-23T03:03:07.097Z,17.03
2018-09-23T03:05:33.437Z,16.92
2018-09-23T03:07:59.816Z,16.83
2018-09-23T03:10:26.125Z,16.86
2018-09-23T03:12:52.440Z,16.98
2018-09-23T03:15:18.760Z,16.89
2018-09-23T03:17:45.102Z,16.72
2018-09-23T03:20:11.423Z,16.80
2018-09-23T03:22:37.759Z,16.75
2018-09-23T03:25:04.087Z,16.64
2018-09-23T03:27:30.400Z,16.58
2018-09-23T03:29:56.713Z,16.56
2018-09-23T03:32:23.058Z,16.58
2018-09-23T03:34:49.377Z,16.55
2018-09-23T03:37:15.734Z,16.51
2018-09-23T03:39:42.073Z,16.71
2018-09-23T03:42:08.462Z,16.85
2018-09-23T03:44:34.776Z,16.98
2018-09-23T03:47:01.095Z,16.99
2018-09-23T03:49:27.440Z,16.94
2018-09-23T03:51:53.822Z,17.07
2018-09-23T03:54:20.136Z,17.13
2018-09-23T03:56:46.523Z,17.05
2018-09-23T03:59:12.840Z,16.95
2018-09-23T04:04:05.497Z,16.80
2018-09-23T04:06:31.819Z,16.74
2018-09-23T04:08:58.135Z,16.76
2018-09-23T04:11:24.450Z,16.90
2018-09-23T04:13:50.778Z,16.87
2018-09-23T04:16:17.125Z,16.71
2018-09-23T04:18:43.460Z,16.53
2018-09-23T04:21:09.761Z,16.46
2018-09-23T04:23:36.149Z,16.37
2018-09-23T04:26:02.465Z,16.33
2018-09-23T04:28:28.782Z,16.19
2018-09-23T04:30:55.124Z,16.08
2018-09-23T04:33:21.464Z,15.99
2018-09-23T04:35:47.818Z,15.92
2018-09-23T04:38:14.163Z,15.82
2018-09-23T04:40:40.510Z,15.85
2018-09-23T04:43:06.824Z,15.82
2018-09-23T04:45:33.189Z,15.89
2018-09-23T04:47:59.524Z,16.03
2018-09-23T04:50:25.841Z,16.22
2018-09-23T04:52:52.169Z,16.43
2018-09-23T04:55:18.607Z,16.57
2018-09-23T04:57:44.835Z,16.61
2018-09-23T05:00:11.232Z,16.63
2018-09-23T05:02:37.589Z,16.73
2018-09-23T05:05:03.933Z,17.14
2018-09-23T05:07:30.250Z,17.48
2018-09-23T05:09:56.589Z,17.78
2018-09-23T05:12:22.914Z,17.89
2018-09-23T05:14:49.301Z,18.05
2018-09-23T05:17:15.623Z,18.00
2018-09-23T05:19:41.963Z,18.17
2018-09-23T05:22:08.350Z,18.20
2018-09-23T05:24:34.718Z,18.12
2018-09-23T05:27:01.033Z,18.32
2018-09-23T05:29:27.432Z,18.52
2018-09-23T05:31:53.755Z,18.83
2018-09-23T05:34:20.062Z,18.70
2018-09-23T05:36:46.403Z,18.66
2018-09-23T05:39:12.719Z,18.77
2018-09-23T05:41:39.076Z,18.86
2018-09-23T05:44:05.513Z,18.93
2018-09-23T05:46:31.789Z,18.96
2018-09-23T05:48:58.129Z,19.05
2018-09-23T05:51:24.447Z,19.30
2018-09-23T05:53:50.790Z,19.56
2018-09-23T05:56:17.103Z,19.59
2018-09-23T05:58:43.449Z,19.42
2018-09-23T06:01:09.787Z,19.74
2018-09-23T06:03:36.107Z,19.96
2018-09-23T06:06:02.455Z,20.06
2018-09-23T06:08:28.784Z,20.25
2018-09-23T06:10:55.099Z,20.34
2018-09-23T06:13:21.440Z,20.43
2018-09-23T06:15:47.755Z,20.72
2018-09-23T06:18:14.100Z,20.90
2018-09-23T06:20:40.463Z,20.93
2018-09-23T06:23:06.817Z,20.95
2018-09-23T06:25:33.127Z,21.23
2018-09-23T06:27:59.445Z,21.21
2018-09-23T06:30:25.783Z,21.27
2018-09-23T06:32:52.109Z,21.37
2018-09-23T06:35:18.426Z,21.53
2018-09-23T06:37:44.742Z,21.59
2018-09-23T06:40:11.063Z,21.74
2018-09-23T06:42:37.383Z,21.74
2018-09-23T06:45:03.745Z,21.96
2018-09-23T06:47:30.085Z,22.03
2018-09-23T06:49:56.423Z,22.28
2018-09-23T06:52:22.740Z,22.46
2018-09-23T06:54:49.059Z,22.36
2018-09-23T06:57:15.396Z,22.60
2018-09-23T06:59:41.721Z,23.05
2018-09-23T07:02:08.038Z,22.96
2018-09-23T07:04:34.455Z,23.13
2018-09-23T07:07:00.720Z,22.72
2018-09-23T07:09:27.059Z,22.79
2018-09-23T07:11:53.399Z,23.04
2018-09-23T07:14:19.764Z,22.77
2018-09-23T07:16:46.104Z,22.97
2018-09-23T07:19:12.444Z,23.27
2018-09-23T07:21:38.758Z,23.66
2018-09-23T07:24:05.218Z,23.66
2018-09-23T07:26:31.417Z,23.83
2018-09-23T07:28:57.735Z,23.74
2018-09-23T07:31:24.063Z,23.71
2018-09-23T07:33:50.403Z,23.97
2018-09-23T07:36:16.759Z,24.11
2018-09-23T07:38:43.081Z,24.39
2018-09-23T07:41:09.419Z,24.46
2018-09-23T07:43:35.719Z,24.76
2018-09-23T07:46:02.042Z,24.96
2018-09-23T07:48:28.358Z,24.64
2018-09-23T07:50:54.833Z,24.76
2018-09-23T07:53:21.151Z,24.86
2018-09-23T07:55:47.462Z,24.70
2018-09-23T07:58:13.779Z,24.83
2018-09-23T08:00:40.099Z,25.12
2018-09-23T08:03:06.435Z,25.34
2018-09-23T08:05:32.833Z,25.31
2018-09-23T08:07:59.122Z,25.32
2018-09-23T08:10:25.560Z,25.56
2018-09-23T08:12:52.049Z,25.36
2018-09-23T08:15:18.207Z,25.47
2018-09-23T08:17:44.547Z,25.40
2018-09-23T08:20:12.092Z,25.58
2018-09-23T08:22:38.307Z,25.45
2018-09-23T08:25:04.695Z,25.38
2018-09-23T08:27:31.016Z,25.46
2018-09-23T08:29:57.358Z,25.86
2018-09-23T08:32:23.714Z,25.73
2018-09-23T08:34:50.057Z,25.65
2018-09-23T08:37:16.481Z,25.92
2018-09-23T08:39:42.813Z,25.93
2018-09-23T08:42:09.145Z,26.05
2018-09-23T08:44:35.470Z,26.04
2018-09-23T08:47:01.814Z,26.15
2018-09-23T08:49:29.160Z,26.58
2018-09-23T08:51:55.581Z,26.59
2018-09-23T08:54:21.824Z,26.66
2018-09-23T08:56:48.221Z,26.47
2018-09-23T08:59:14.541Z,26.84
2018-09-23T09:01:40.872Z,27.35
2018-09-23T09:04:07.204Z,27.61
2018-09-23T09:06:33.551Z,27.46
2018-09-23T09:08:59.880Z,27.40
2018-09-23T09:11:26.260Z,27.77
2018-09-23T09:13:52.591Z,27.58
2018-09-23T09:16:18.932Z,27.59
2018-09-23T09:18:45.378Z,28.05
2018-09-23T09:21:11.647Z,28.22
2018-09-23T09:23:37.990Z,28.30
2018-09-23T09:26:04.384Z,28.45
2018-09-23T09:28:30.715Z,28.51
2018-09-23T09:30:57.048Z,28.40
2018-09-23T09:33:23.379Z,28.39
2018-09-23T09:35:49.712Z,28.92
2018-09-23T09:38:16.057Z,28.91
2018-09-23T09:40:42.387Z,28.81
2018-09-23T09:43:08.731Z,28.23
2018-09-23T09:45:35.074Z,28.69
2018-09-23T09:48:01.420Z,29.04
2018-09-23T09:50:27.771Z,29.25
2018-09-23T09:52:54.095Z,29.15
2018-09-23T09:55:20.508Z,29.07
2018-09-23T09:57:46.819Z,29.01
2018-09-23T10:00:14.613Z,29.15
2018-09-23T10:02:40.952Z,29.17
2018-09-23T10:05:07.285Z,29.38
2018-09-23T10:07:33.622Z,29.92
2018-09-23T10:09:59.968Z,29.99
2018-09-23T10:12:26.310Z,29.72
2018-09-23T10:14:52.707Z,29.95
2018-09-23T10:17:19.008Z,30.47
2018-09-23T10:19:45.405Z,30.61
2018-09-23T10:22:11.701Z,30.45
2018-09-23T10:24:38.039Z,30.62
2018-09-23T10:27:04.719Z,29.92
2018-09-23T10:29:31.043Z,29.69
2018-09-23T10:31:59.417Z,30.17
2018-09-23T10:34:25.753Z,30.47
2018-09-23T10:36:52.105Z,30.69
2018-09-23T10:39:18.452Z,31.29
2018-09-23T10:41:44.789Z,31.28
2018-09-23T10:44:11.133Z,31.04
2018-09-23T10:46:37.502Z,31.42
2018-09-23T10:49:03.805Z,31.79
2018-09-23T10:51:30.184Z,31.85
2018-09-23T10:53:56.519Z,31.78
2018-09-23T10:56:22.869Z,31.90
2018-09-23T10:58:49.203Z,32.24
2018-09-23T11:01:15.549Z,32.26
2018-09-23T11:03:41.950Z,32.01
2018-09-23T11:06:08.225Z,32.10
2018-09-23T11:08:34.560Z,32.11
2018-09-23T11:11:00.912Z,32.48
2018-09-23T11:13:27.245Z,32.78
2018-09-23T11:15:53.575Z,33.11
2018-09-23T11:18:19.938Z,33.08
2018-09-23T11:20:46.283Z,33.34
2018-09-23T11:23:12.753Z,32.94
2018-09-23T11:25:39.029Z,32.82
2018-09-23T11:28:05.367Z,33.09
2018-09-23T11:30:31.754Z,33.61
2018-09-23T11:32:58.063Z,33.46
2018-09-23T11:35:24.406Z,33.85
2018-09-23T11:37:50.756Z,33.69
2018-09-23T11:40:17.088Z,33.31
2018-09-23T11:42:43.459Z,33.43
2018-09-23T11:45:09.790Z,33.74
2018-09-23T11:47:36.126Z,33.44
2018-09-23T11:50:02.460Z,33.34
2018-09-23T11:52:28.849Z,33.67
2018-09-23T11:54:55.196Z,33.75
2018-09-23T11:57:21.620Z,33.82
2018-09-23T11:59:47.901Z,34.43
2018-09-23T12:02:14.356Z,34.19
2018-09-23T12:04:40.630Z,33.99
2018-09-23T12:07:06.968Z,34.07
2018-09-23T12:09:33.346Z,34.19
2018-09-23T12:11:59.689Z,34.34
2018-09-23T12:14:26.027Z,34.65
2018-09-23T12:16:52.402Z,34.98
2018-09-23T12:19:18.723Z,35.06
2018-09-23T12:21:45.059Z,34.71
2018-09-23T12:24:11.390Z,33.92
2018-09-23T12:26:37.862Z,33.28
2018-09-23T12:29:04.269Z,33.18
2018-09-23T12:31:30.576Z,33.10
2018-09-23T12:33:56.907Z,33.55
2018-09-23T12:36:23.343Z,34.17
2018-09-23T12:38:49.672Z,33.64
2018-09-23T12:41:16.061Z,33.11
2018-09-23T12:43:42.402Z,32.92
2018-09-23T12:46:08.788Z,32.97
2018-09-23T12:48:35.197Z,33.10
2018-09-23T12:51:01.559Z,32.48
2018-09-23T12:53:28.094Z,31.88
2018-09-23T12:55:54.363Z,31.61
2018-09-23T12:58:20.733Z,31.43
2018-09-23T13:00:47.101Z,31.43
2018-09-23T13:03:13.461Z,31.47
2018-09-23T13:05:39.816Z,31.45
2018-09-23T13:08:06.161Z,31.28
2018-09-23T13:10:32.579Z,31.27
2018-09-23T13:12:58.885Z,31.08
2018-09-23T13:15:25.225Z,30.77
2018-09-23T13:17:52.704Z,30.55
2018-09-23T13:20:19.028Z,30.24
2018-09-23T13:22:45.577Z,30.32
2018-09-23T13:25:11.902Z,30.55
2018-09-23T13:27:38.244Z,30.77
2018-09-23T13:30:04.774Z,30.77
2018-09-23T13:32:31.344Z,30.68
2018-09-23T13:34:57.753Z,30.57
2018-09-23T13:37:24.303Z,30.22
2018-09-23T13:39:50.787Z,30.07
2018-09-23T13:42:17.086Z,30.17
2018-09-23T13:44:43.427Z,30.21
2018-09-23T13:47:09.841Z,30.21
2018-09-23T13:49:36.222Z,30.24
2018-09-23T13:52:02.558Z,30.30
2018-09-23T13:54:28.941Z,30.34
2018-09-23T13:56:55.231Z,30.32
2018-09-23T13:59:21.570Z,30.18
2018-09-23T14:01:48.067Z,30.15
2018-09-23T14:04:14.411Z,30.24
2018-09-23T14:06:46.896Z,30.33
2018-09-23T14:09:07.399Z,30.20
2018-09-23T14:11:33.733Z,29.98
2018-09-23T14:14:00.152Z,29.91
2018-09-23T14:16:26.683Z,29.91
2018-09-23T14:18:53.024Z,30.11
2018-09-23T14:21:19.379Z,30.16
2018-09-23T14:23:45.741Z,30.09
2018-09-23T14:26:12.075Z,30.03
2018-09-23T14:28:38.456Z,29.89
2018-09-23T14:31:05.184Z,29.85
2018-09-23T14:33:31.711Z,29.86
2018-09-23T14:35:58.056Z,29.89
2018-09-23T14:38:24.387Z,29.86
2018-09-23T14:40:50.779Z,29.80
2018-09-23T14:43:17.118Z,29.77
2018-09-23T14:45:43.488Z,29.69
2018-09-23T14:48:09.885Z,29.62
2018-09-23T14:50:36.214Z,29.66
2018-09-23T14:53:02.567Z,29.65
2018-09-23T14:55:28.913Z,29.57
2018-09-23T14:57:55.269Z,29.48
2018-09-23T15:00:21.608Z,29.34
2018-09-23T15:02:47.955Z,29.33
2018-09-23T15:05:14.286Z,29.24
2018-09-23T15:07:40.610Z,29.15
2018-09-23T15:10:06.997Z,29.12
2018-09-23T15:12:33.396Z,29.10
2018-09-23T15:14:59.701Z,29.11
2018-09-23T15:17:26.033Z,29.06
2018-09-23T15:19:52.438Z,29.02
2018-09-23T15:22:18.793Z,28.97
2018-09-23T15:24:45.137Z,28.89
2018-09-23T15:27:11.609Z,28.81
2018-09-23T15:29:37.956Z,28.76
2018-09-23T15:32:04.370Z,28.70
2018-09-23T15:34:30.693Z,28.64
2018-09-23T15:36:57.044Z,28.58
2018-09-23T15:39:23.454Z,28.51
2018-09-23T15:41:49.792Z,28.44
2018-09-23T15:44:16.148Z,28.38
2018-09-23T15:46:42.692Z,28.32
2018-09-23T15:49:09.043Z,28.23
2018-09-23T15:51:35.456Z,28.20
2018-09-23T15:54:01.841Z,28.13
2018-09-23T15:56:28.196Z,28.06
2018-09-23T15:58:54.550Z,27.95
2018-09-23T16:01:20.896Z,27.84
2018-09-23T16:03:47.241Z,27.75
2018-09-23T16:06:13.567Z,27.72
2018-09-23T16:08:39.906Z,27.62
2018-09-23T16:11:06.259Z,27.56
2018-09-23T16:13:32.559Z,27.46
2018-09-23T16:15:58.911Z,27.36
2018-09-23T16:18:25.389Z,27.25
2018-09-23T16:20:51.716Z,27.17
2018-09-23T16:23:18.065Z,27.11
2018-09-23T16:25:44.437Z,27.01
2018-09-23T16:28:10.743Z,26.94
2018-09-23T16:30:37.133Z,26.88
2018-09-23T16:33:03.482Z,26.79
2018-09-23T16:35:29.828Z,26.76
2018-09-23T16:37:56.164Z,26.71
2018-09-23T16:40:22.539Z,26.65
2018-09-23T16:42:48.831Z,26.58
2018-09-23T16:45:15.176Z,26.56
2018-09-23T16:47:41.532Z,26.52
2018-09-23T16:50:07.900Z,26.42
2018-09-23T16:52:34.250Z,26.41
2018-09-23T16:55:00.624Z,26.33
2018-09-23T16:57:26.938Z,26.10
2018-09-23T16:59:53.281Z,25.97
2018-09-23T17:02:20.028Z,25.89
2018-09-23T17:04:46.353Z,25.82
2018-09-23T17:07:12.728Z,25.83
2018-09-23T17:09:39.055Z,25.75
2018-09-23T17:12:05.401Z,25.70
2018-09-23T17:14:31.762Z,25.61
2018-09-23T17:16:58.097Z,25.48
2018-09-23T17:19:24.426Z,25.44
2018-09-23T17:21:50.846Z,25.42
2018-09-23T17:24:17.147Z,25.41
2018-09-23T17:26:43.570Z,25.34
2018-09-23T17:29:09.926Z,25.28
2018-09-23T17:31:36.263Z,25.23
2018-09-23T17:34:02.621Z,25.17
2018-09-23T17:36:28.976Z,25.13
2018-09-23T17:38:55.284Z,25.06
2018-09-23T17:41:21.642Z,24.97
2018-09-23T17:43:47.990Z,24.84
2018-09-23T17:46:14.333Z,24.77
2018-09-23T17:48:40.734Z,24.74
2018-09-23T17:51:07.030Z,24.71
2018-09-23T17:53:33.351Z,24.76
2018-09-23T17:55:59.698Z,24.81
2018-09-23T17:58:26.050Z,24.62
2018-09-23T18:00:52.556Z,24.32
2018-09-23T18:03:18.882Z,24.14
2018-09-23T18:05:45.277Z,24.01
2018-09-23T18:08:11.619Z,24.00
2018-09-23T18:10:37.941Z,23.95
2018-09-23T18:13:04.264Z,24.00
2018-09-23T18:15:30.621Z,24.10
2018-09-23T18:17:56.963Z,24.24
2018-09-23T18:20:23.290Z,24.25
2018-09-23T18:22:49.629Z,24.22
2018-09-23T18:25:15.956Z,24.06
2018-09-23T18:27:42.302Z,23.98
2018-09-23T18:30:08.694Z,23.87
2018-09-23T18:32:35.042Z,23.83
2018-09-23T18:35:01.401Z,23.78
2018-09-23T18:37:27.877Z,23.73
2018-09-23T18:39:54.137Z,23.67
2018-09-23T18:42:20.449Z,23.57
2018-09-23T18:44:46.776Z,23.52
2018-09-23T18:47:13.114Z,23.45
2018-09-23T18:49:39.467Z,23.39
2018-09-23T18:52:05.785Z,23.38
2018-09-23T18:54:32.118Z,23.30
2018-09-23T18:56:58.450Z,23.23
2018-09-23T18:59:24.771Z,23.24
2018-09-23T19:01:51.121Z,23.25
2018-09-23T19:04:17.476Z,23.21
2018-09-23T19:06:43.817Z,23.12
2018-09-23T19:09:10.145Z,23.03
2018-09-23T19:11:36.512Z,22.96
2018-09-23T19:14:02.841Z,22.70
2018-09-23T19:16:29.190Z,22.56
2018-09-23T19:18:55.531Z,22.55
2018-09-23T19:21:24.895Z,22.56
2018-09-23T19:23:51.128Z,22.48
2018-09-23T19:26:17.461Z,22.45
2018-09-23T19:28:43.793Z,22.48
2018-09-23T19:31:10.172Z,22.45
2018-09-23T19:33:36.490Z,22.43
2018-09-23T19:36:02.917Z,22.36
2018-09-23T19:38:29.322Z,22.25
2018-09-23T19:40:55.631Z,22.19
2018-09-23T19:43:23.145Z,22.20
2018-09-23T19:45:48.349Z,22.13
2018-09-23T19:48:14.708Z,22.10
2018-09-23T19:50:41.065Z,22.08
2018-09-23T19:53:07.412Z,22.01
2018-09-23T19:55:33.780Z,22.00
2018-09-23T19:58:00.139Z,22.05
2018-09-23T20:00:26.679Z,22.07
2018-09-23T20:02:53.128Z,21.94
2018-09-23T20:05:19.489Z,21.61
2018-09-23T20:07:45.820Z,21.49
2018-09-23T20:10:12.178Z,21.46
2018-09-23T20:12:38.542Z,21.47
2018-09-23T20:15:04.864Z,21.57
2018-09-23T20:17:31.243Z,21.68
2018-09-23T20:19:57.591Z,21.71
2018-09-23T20:22:23.937Z,21.67
2018-09-23T20:24:50.313Z,21.55
2018-09-23T20:27:16.657Z,21.49
2018-09-23T20:29:43.014Z,21.48
2018-09-23T20:32:11.970Z,21.48
2018-09-23T20:34:35.723Z,21.18
2018-09-23T20:37:02.115Z,20.90
2018-09-23T20:39:28.434Z,20.82
2018-09-23T20:41:54.828Z,20.87
2018-09-23T20:44:21.207Z,20.96
2018-09-23T20:46:47.591Z,20.86
2018-09-23T20:49:13.940Z,20.88
2018-09-23T20:51:40.404Z,20.76
2018-09-23T20:54:06.649Z,20.63
2018-09-23T20:56:33.013Z,20.61
2018-09-23T20:58:59.356Z,20.73
2018-09-23T21:01:25.708Z,20.63
2018-09-23T21:03:52.051Z,20.44
2018-09-23T21:06:18.408Z,20.26
2018-09-23T21:08:44.744Z,20.13
2018-09-23T21:11:11.112Z,20.22
2018-09-23T21:13:37.505Z,20.14
2018-09-23T21:16:03.840Z,20.04
2018-09-23T21:18:30.197Z,19.92
2018-09-23T21:20:56.544Z,19.95
2018-09-23T21:23:22.897Z,19.85
2018-09-23T21:25:49.245Z,19.88
2018-09-23T21:28:15.606Z,20.00
2018-09-23T21:30:41.934Z,20.07
2018-09-23T21:33:08.295Z,20.10
2018-09-23T21:35:34.613Z,20.13
2018-09-23T21:38:00.935Z,20.13
2018-09-23T21:40:27.272Z,20.26
2018-09-23T21:42:53.702Z,20.28
2018-09-23T21:45:20.045Z,20.21
2018-09-23T21:47:46.405Z,20.17
2018-09-23T21:50:12.741Z,20.24
2018-09-23T21:52:39.069Z,20.34
2018-09-23T21:55:05.624Z,20.38
2018-09-23T21:57:31.927Z,20.31
2018-09-23T21:59:58.297Z,20.40
2018-09-23T22:02:24.674Z,20.57
2018-09-23T22:04:51.017Z,20.61
2018-09-23T22:07:17.437Z,20.44
2018-09-23T22:09:43.765Z,20.29
2018-09-23T22:12:10.098Z,20.04
2018-09-23T22:14:36.485Z,20.07
2018-09-23T22:17:02.893Z,20.29
2018-09-23T22:19:29.284Z,20.22
2018-09-23T22:21:55.720Z,19.92
2018-09-23T22:24:21.976Z,19.98
2018-09-23T22:26:48.321Z,20.00
2018-09-23T22:29:14.657Z,19.93
2018-09-23T22:31:40.975Z,19.59
2018-09-23T22:34:07.294Z,19.54
2018-09-23T22:36:33.624Z,19.64
2018-09-23T22:38:59.964Z,19.58
2018-09-23T22:41:26.305Z,19.47
2018-09-23T22:43:52.662Z,19.70
2018-09-23T22:46:19.016Z,19.57
2018-09-23T22:48:45.388Z,19.67
2018-09-23T22:51:11.732Z,19.86
2018-09-23T22:53:38.067Z,19.92
2018-09-23T22:56:04.395Z,19.87
2018-09-23T22:58:30.748Z,19.67
2018-09-23T23:00:57.061Z,19.69
2018-09-23T23:03:23.401Z,19.75
2018-09-23T23:05:49.758Z,19.74
2018-09-23T23:08:16.092Z,19.49
2018-09-23T23:10:42.419Z,19.34
2018-09-23T23:13:08.744Z,19.46
2018-09-23T23:15:35.072Z,19.47
2018-09-23T23:18:01.389Z,19.32
2018-09-23T23:20:27.730Z,19.19
2018-09-23T23:22:54.052Z,19.22
2018-09-23T23:25:20.388Z,19.31
2018-09-23T23:27:46.710Z,19.08
2018-09-23T23:30:13.026Z,19.03
2018-09-23T23:32:39.424Z,18.96
2018-09-23T23:35:05.717Z,18.75
2018-09-23T23:37:32.041Z,18.59
2018-09-23T23:39:58.401Z,18.60
2018-09-23T23:42:24.693Z,18.75
2018-09-23T23:44:51.016Z,18.70
2018-09-23T23:47:17.379Z,18.39
2018-09-23T23:49:43.799Z,18.50
2018-09-23T23:52:10.094Z,18.35
2018-09-23T23:54:36.409Z,18.39
2018-09-23T23:57:02.760Z,18.40
2018-09-23T23:59:29.094Z,18.47
